Time;durP1;ratioP1;P1;durP2;ratioP2;P2;SDS_P1;SDS_P2;PMS_P1;PMS_P2;Temp;Humidity;BMP_temperature;BMP_pressure;BME280_temperature;BME280_humidity;BME280_pressure;Samples;Min_cycle;Max_cycle;Signal;HPM_P1;HPM_P2
2022/10/10 00:00:52;;;;;;;;;;;;;;;21.58;58.55;101768.09;7408489;19;1611;-73
2022/10/10 00:03:21;;;;;;;;;;;;;;;21.61;58.15;101765.16;7404504;19;1451;-57
2022/10/10 00:05:50;;;;;;;;;;;;;;;21.60;58.29;101758.91;7404347;19;1398;-57
2022/10/10 00:08:18;;;;;;;;;;;;;;;21.59;58.44;101775.19;7405243;19;1472;-57
2022/10/10 00:10:47;;;;;;;;;;;;;;;21.54;58.29;101759.41;7405546;19;1553;-57
2022/10/10 00:13:15;;;;;;;;;;;;;;;21.56;58.40;101767.38;7405977;19;1859;-72
2022/10/10 00:15:46;;;;;;;;;;;;;;;21.54;58.51;101759.41;7407330;19;1525;-57
2022/10/10 00:18:14;;;;;;;;;;;;;;;21.54;58.26;101780.09;7404859;19;1845;-73
2022/10/10 00:20:43;;;;;;;;;;;;;;;21.55;58.51;101771.91;7405705;19;1575;-73
2022/10/10 00:23:11;;;;;;;;;;;;;;;21.56;58.39;101775.44;7404400;19;1608;-73
2022/10/10 00:25:39;;;;;;;;;;;;;;;21.55;58.37;101765.69;7405643;19;1318;-57
2022/10/10 00:28:07;;;;;;;;;;;;;;;21.55;58.42;101776.44;7405547;19;1299;-57
2022/10/10 00:30:36;;;;;;;;;;;;;;;21.49;58.58;101760.78;7404236;19;1753;-72
2022/10/10 00:33:07;;;;;;;;;;;;;;;21.53;58.46;101763.09;7406524;19;1704;-73
2022/10/10 00:35:35;;;;;;;;;;;;;;;21.48;58.41;101751.84;7403524;19;1842;-57
2022/10/10 00:38:04;;;;;;;;;;;;;;;21.52;58.44;101765.91;7404986;19;1598;-57
2022/10/10 00:40:33;;;;;;;;;;;;;;;21.46;58.59;101761.91;7403871;19;1329;-57
2022/10/10 00:43:02;;;;;;;;;;;;;;;21.50;58.47;101774.13;7405544;19;1542;-72
2022/10/10 00:45:32;;;;;;;;;;;;;;;21.50;58.32;101778.66;7404565;19;1638;-72
2022/10/10 00:48:02;;;;;;;;;;;;;;;21.52;58.41;101780.22;7405063;19;1317;-72
2022/10/10 00:50:34;;;;;;;;;;;;;;;21.49;58.49;101763.47;7404845;19;1532;-72
2022/10/10 00:53:04;;;;;;;;;;;;;;;21.49;58.42;101774.22;7406169;19;1515;-73
2022/10/10 00:55:33;;;;;;;;;;;;;;;21.52;58.28;101777.53;7404389;19;1859;-72
2022/10/10 00:58:01;;;;;;;;;;;;;;;21.52;58.42;101776.69;7405336;19;1064;-57
2022/10/10 01:00:29;;;;;;;;;;;;;;;21.48;58.23;101786.84;7403921;19;1689;-57
2022/10/10 01:02:58;;;;;;;;;;;;;;;21.48;58.54;101781.47;7401682;19;1633;-57
2022/10/10 01:05:26;;;;;;;;;;;;;;;21.49;58.56;101793.06;7401768;19;1624;-57
2022/10/10 01:07:58;;;;;;;;;;;;;;;21.49;58.57;101787.69;7403939;19;1564;-57
2022/10/10 01:10:27;;;;;;;;;;;;;;;21.46;58.54;101783.44;7402994;19;1285;-57
2022/10/10 01:13:00;;;;;;;;;;;;;;;21.47;58.43;101781.59;7404659;19;1546;-73
2022/10/10 01:15:34;;;;;;;;;;;;;;;21.48;58.44;101783.31;7403662;19;1873;-72
2022/10/10 01:18:06;;;;;;;;;;;;;;;21.43;58.45;101787.22;7405274;19;1672;-73
2022/10/10 01:20:46;;;;;;;;;;;;;;;21.50;58.35;101800.19;7404666;19;1719;-73
2022/10/10 01:23:29;;;;;;;;;;;;;;;21.47;58.43;101805.81;7405751;19;1319;-57
2022/10/10 01:26:03;;;;;;;;;;;;;;;21.43;58.66;101800.69;7400871;19;1695;-57
2022/10/10 01:28:38;;;;;;;;;;;;;;;21.44;58.44;101797.00;7403344;19;1686;-57
2022/10/10 01:31:07;;;;;;;;;;;;;;;21.44;58.31;101799.69;7402982;19;1532;-57
2022/10/10 01:33:40;;;;;;;;;;;;;;;21.43;58.70;101797.16;7404567;19;1559;-57
2022/10/10 01:36:14;;;;;;;;;;;;;;;21.45;58.50;101804.09;7410760;19;1398;-57
2022/10/10 01:38:49;;;;;;;;;;;;;;;21.43;58.52;101811.47;7410797;19;1768;-57
2022/10/10 01:41:19;;;;;;;;;;;;;;;21.43;58.50;101819.53;7410283;19;1384;-57
2022/10/10 01:43:54;;;;;;;;;;;;;;;21.43;58.21;101811.47;7410760;19;1569;-57
2022/10/10 01:46:22;;;;;;;;;;;;;;;21.44;58.40;101815.00;7409619;19;1347;-57
2022/10/10 01:48:52;;;;;;;;;;;;;;;21.48;58.43;101807.53;7410721;19;1667;-72
2022/10/10 01:51:26;;;;;;;;;;;;;;;21.47;58.17;101816.56;7411422;19;1311;-57
2022/10/10 01:53:58;;;;;;;;;;;;;;;21.42;58.54;101815.06;7410273;19;1864;-72
2022/10/10 01:56:32;;;;;;;;;;;;;;;21.44;58.46;101806.91;7411049;19;1418;-72
2022/10/10 01:59:10;;;;;;;;;;;;;;;21.41;58.43;101808.00;7411533;19;1634;-72
2022/10/10 02:01:45;;;;;;;;;;;;;;;21.36;58.39;101787.84;7389485;19;3287;-42
2022/10/10 02:04:20;;;;;;;;;;;;;;;21.45;58.37;101820.25;7400406;19;1569;-43
2022/10/10 02:06:52;;;;;;;;;;;;;;;21.45;58.29;101817.56;7406584;19;1807;-42
2022/10/10 02:09:25;;;;;;;;;;;;;;;21.44;58.20;101810.47;7406777;19;1086;-42
2022/10/10 02:11:58;;;;;;;;;;;;;;;21.43;58.52;101824.06;7402706;19;1839;-43
2022/10/10 02:14:32;;;;;;;;;;;;;;;21.43;58.42;101816.84;7401650;19;1858;-41
2022/10/10 02:17:04;;;;;;;;;;;;;;;21.44;58.54;101825.75;7404324;19;1881;-41
2022/10/10 02:19:34;;;;;;;;;;;;;;;21.42;58.48;101814.22;7406776;19;1003;-41
2022/10/10 02:22:06;;;;;;;;;;;;;;;21.46;58.36;101834.56;7404780;19;2005;-40
2022/10/10 02:24:34;;;;;;;;;;;;;;;21.40;58.44;101824.28;7404720;19;1710;-41
2022/10/10 02:27:07;;;;;;;;;;;;;;;21.44;58.27;101837.38;7404965;19;1494;-41
2022/10/10 02:29:44;;;;;;;;;;;;;;;21.42;58.27;101838.44;7403646;19;1971;-40
2022/10/10 02:32:19;;;;;;;;;;;;;;;21.42;58.28;101825.00;7405206;19;1936;-41
2022/10/10 02:34:55;;;;;;;;;;;;;;;21.39;58.15;101820.72;7404172;19;1853;-40
2022/10/10 02:37:25;;;;;;;;;;;;;;;21.36;58.43;101834.41;7405741;19;1955;-40
2022/10/10 02:40:05;;;;;;;;;;;;;;;21.38;58.42;101834.31;7405705;19;1731;-40
2022/10/10 02:42:33;;;;;;;;;;;;;;;21.40;58.25;101838.56;7405833;19;1822;-41
2022/10/10 02:45:07;;;;;;;;;;;;;;;21.40;58.49;101826.97;7402827;19;1442;-40
2022/10/10 02:47:39;;;;;;;;;;;;;;;21.41;58.40;101844.81;7405132;19;1640;-40
2022/10/10 02:50:17;;;;;;;;;;;;;;;21.39;58.42;101838.72;7404713;19;1675;-41
2022/10/10 02:52:47;;;;;;;;;;;;;;;21.42;58.27;101846.53;7404258;19;1284;-41
2022/10/10 02:55:18;;;;;;;;;;;;;;;21.41;58.24;101851.06;7403437;19;1971;-40
2022/10/10 02:57:50;;;;;;;;;;;;;;;21.43;58.16;101851.81;7404963;19;2045;-41
2022/10/10 03:00:32;;;;;;;;;;;;;;;21.46;58.38;101845.31;7403864;19;1931;-40
2022/10/10 03:03:05;;;;;;;;;;;;;;;21.43;58.32;101843.75;7401375;19;2017;-41
2022/10/10 03:05:33;;;;;;;;;;;;;;;21.50;58.47;101854.84;7403163;19;1625;-41
2022/10/10 03:08:03;;;;;;;;;;;;;;;21.49;58.69;101857.66;7402957;19;1456;-41
2022/10/10 03:10:35;;;;;;;;;;;;;;;21.49;59.03;101852.28;7402799;19;1842;-40
2022/10/10 03:13:20;;;;;;;;;;;;;;;;;;;;;
2022/10/10 03:15:53;;;;;;;;;;;;;;;21.46;59.36;101858.78;7401982;19;1858;-40
2022/10/10 03:18:43;;;;;;;;;;;;;;;21.49;59.40;101860.34;7404048;19;1700;-41
2022/10/10 03:21:14;;;;;;;;;;;;;;;21.50;59.50;101875.53;7403946;19;1573;-41
2022/10/10 03:23:52;;;;;;;;;;;;;;;21.49;59.32;101868.44;7404266;19;1695;-40
2022/10/10 03:26:23;;;;;;;;;;;;;;;21.47;59.41;101865.88;7404114;19;1541;-40
2022/10/10 03:28:55;;;;;;;;;;;;;;;21.45;59.71;101870.53;7400769;19;1987;-40
2022/10/10 03:31:28;;;;;;;;;;;;;;;21.41;60.08;101877.97;7402762;19;1790;-40
2022/10/10 03:33:59;;;;;;;;;;;;;;;21.40;60.15;101878.09;7402545;19;1641;-40
2022/10/10 03:36:32;;;;;;;;;;;;;;;21.40;60.56;101876.25;7399229;19;1846;-41
2022/10/10 03:39:01;;;;;;;;;;;;;;;21.39;60.50;101885.31;7401723;19;1577;-41
2022/10/10 03:41:35;;;;;;;;;;;;;;;21.44;60.08;101876.88;7402593;19;1707;-41
2022/10/10 03:44:09;;;;;;;;;;;;;;;21.48;60.31;101885.56;7404152;19;1340;-40
2022/10/10 03:46:41;;;;;;;;;;;;;;;21.49;60.42;101884.56;7403396;19;1686;-40
2022/10/10 03:49:11;;;;;;;;;;;;;;;21.48;60.32;101881.03;7402930;19;1889;-41
2022/10/10 03:51:43;;;;;;;;;;;;;;;21.45;60.39;101871.38;7402196;19;1586;-40
2022/10/10 03:54:16;;;;;;;;;;;;;;;21.51;60.48;101882.66;7397223;19;2210;-41
2022/10/10 03:56:44;;;;;;;;;;;;;;;21.51;60.10;101882.66;7398744;19;2130;-41
2022/10/10 03:59:13;;;;;;;;;;;;;;;21.50;60.28;101891.69;7401517;19;1677;-41
2022/10/10 04:01:43;;;;;;;;;;;;;;;21.48;60.42;101896.34;7400991;19;1636;-41
2022/10/10 04:04:12;;;;;;;;;;;;;;;21.50;60.37;101881.75;7401532;19;1749;-42
2022/10/10 04:07:05;;;;;;;;;;;;;;;21.51;60.48;101907.72;7397435;19;1750;-41
2022/10/10 04:09:34;;;;;;;;;;;;;;;21.51;60.31;101896.09;7401814;19;1448;-41
2022/10/10 04:12:02;;;;;;;;;;;;;;;21.51;59.87;101893.41;7401035;19;1594;-41
2022/10/10 04:14:30;;;;;;;;;;;;;;;21.51;59.51;101893.41;7401288;19;1487;-42
2022/10/10 04:17:10;;;;;;;;;;;;;;;21.50;59.65;101894.38;7399790;19;1859;-43
2022/10/10 04:19:42;;;;;;;;;;;;;;;21.47;59.56;101894.59;7401272;19;1590;-43
2022/10/10 04:22:13;;;;;;;;;;;;;;;21.49;59.16;101890.84;7399185;19;1985;-42
2022/10/10 04:24:46;;;;;;;;;;;;;;;21.50;57.65;101902.44;7401362;19;1646;-42
2022/10/10 04:27:15;;;;;;;;;;;;;;;21.52;59.03;101913.94;7401415;19;2029;-42
2022/10/10 04:29:43;;;;;;;;;;;;;;;21.44;58.93;101906.50;7401567;19;1879;-43
2022/10/10 04:32:14;;;;;;;;;;;;;;;21.57;59.54;101909.06;7400545;19;1629;-43
2022/10/10 04:34:42;;;;;;;;;;;;;;;21.47;57.73;101908.94;7400554;19;1852;-42
2022/10/10 04:37:10;;;;;;;;;;;;;;;21.41;58.42;101914.78;7399872;19;1971;-42
2022/10/10 04:39:38;;;;;;;;;;;;;;;21.43;58.46;101923.63;7400953;19;1616;-43
2022/10/10 04:42:07;;;;;;;;;;;;;;;21.44;58.56;101925.31;7400272;19;1505;-42
2022/10/10 04:44:35;;;;;;;;;;;;;;;21.48;58.39;101925.94;7400418;19;1561;-42
2022/10/10 04:47:03;;;;;;;;;;;;;;;21.47;58.46;101927.78;7400664;19;1718;-42
2022/10/10 04:49:34;;;;;;;;;;;;;;;21.53;58.61;101939.91;7400417;19;1594;-42
2022/10/10 04:52:02;;;;;;;;;;;;;;;21.50;58.48;101932.06;7398574;19;1673;-42
2022/10/10 04:54:31;;;;;;;;;;;;;;;21.50;58.69;101932.91;7399871;19;1765;-42
2022/10/10 04:56:59;;;;;;;;;;;;;;;21.54;58.60;101942.44;7399828;19;1874;-42
2022/10/10 04:59:27;;;;;;;;;;;;;;;21.63;58.73;101922.00;7400589;19;1526;-42
2022/10/10 05:01:55;;;;;;;;;;;;;;;21.63;58.71;101932.78;7399998;19;1740;-42
2022/10/10 05:04:24;;;;;;;;;;;;;;;21.59;58.94;101942.09;7401661;19;1009;-41
2022/10/10 05:06:54;;;;;;;;;;;;;;;21.64;58.78;101945.25;7400317;19;2008;-42
2022/10/10 05:09:23;;;;;;;;;;;;;;;21.67;58.82;101949.53;7404603;19;2119;-41
2022/10/10 05:11:55;;;;;;;;;;;;;;;21.70;58.67;101946.59;7406670;19;1556;-42
2022/10/10 05:14:24;;;;;;;;;;;;;;;21.64;58.94;101929.09;7408106;19;1862;-42
2022/10/10 05:16:52;;;;;;;;;;;;;;;21.67;59.08;101936.94;7406438;19;2007;-44
2022/10/10 05:19:20;;;;;;;;;;;;;;;21.66;59.30;101940.59;7410919;19;1826;-42
2022/10/10 05:21:48;;;;;;;;;;;;;;;21.66;58.89;101940.59;7406322;19;1736;-41
2022/10/10 05:24:19;;;;;;;;;;;;;;;21.68;58.96;101952.09;7406120;19;1835;-41
2022/10/10 05:26:47;;;;;;;;;;;;;;;21.70;59.00;101952.81;7407642;19;1853;-41
2022/10/10 05:29:16;;;;;;;;;;;;;;;21.71;58.75;101959.94;7405777;19;1659;-41
2022/10/10 05:31:44;;;;;;;;;;;;;;;21.63;59.08;101962.41;7405248;19;1986;-41
2022/10/10 05:34:13;;;;;;;;;;;;;;;21.68;59.35;101965.56;7406903;19;1758;-41
2022/10/10 05:36:42;;;;;;;;;;;;;;;21.67;58.95;101969.25;7404017;19;1870;-41
2022/10/10 05:39:10;;;;;;;;;;;;;;;21.67;58.82;101976.47;7406258;19;1795;-41
2022/10/10 05:41:41;;;;;;;;;;;;;;;21.60;58.79;101965.31;7404515;19;1758;-41
2022/10/10 05:44:09;;;;;;;;;;;;;;;21.63;59.04;101984.78;7406550;19;1751;-42
2022/10/10 05:46:37;;;;;;;;;;;;;;;21.75;58.62;101972.16;7407691;19;1013;-41
2022/10/10 05:49:05;;;;;;;;;;;;;;;21.74;58.64;101978.50;7406905;19;2037;-40
2022/10/10 05:51:34;;;;;;;;;;;;;;;21.78;56.97;101981.81;7405026;19;1884;-41
2022/10/10 05:54:02;;;;;;;;;;;;;;;21.70;53.51;101990.50;7406367;19;1740;-41
2022/10/10 05:56:30;;;;;;;;;;;;;;;21.73;54.24;101987.59;7402747;19;1847;-41
2022/10/10 05:59:01;;;;;;;;;;;;;;;21.74;56.24;101985.75;7406061;19;2294;-41
2022/10/10 06:01:33;;;;;;;;;;;;;;;21.69;55.51;101982.59;7403416;19;1739;-41
2022/10/10 06:04:02;;;;;;;;;;;;;;;21.73;55.61;101986.75;7406658;19;1638;-41
2022/10/10 06:06:30;;;;;;;;;;;;;;;21.70;55.60;101990.50;7406457;19;1937;-41
2022/10/10 06:08:59;;;;;;;;;;;;;;;21.74;56.10;101994.66;7404668;19;1597;-41
2022/10/10 06:11:28;;;;;;;;;;;;;;;21.76;56.51;101990.00;7404913;19;1954;-41
2022/10/10 06:13:56;;;;;;;;;;;;;;;21.77;57.29;101994.44;7406072;19;1401;-41
2022/10/10 06:16:28;;;;;;;;;;;;;;;21.87;57.77;101996.41;7400118;19;1864;-41
2022/10/10 06:18:57;;;;;;;;;;;;;;;21.97;58.79;102000.88;7404994;19;1781;-41
2022/10/10 06:21:47;;;;;;;;;;;;;;;22.08;58.80;102000.00;7402905;19;1538;-41
2022/10/10 06:24:15;;;;;;;;;;;;;;;22.04;60.29;101950.94;7399360;19;2366;-44
2022/10/10 06:26:43;;;;;;;;;;;;;;;22.06;59.18;101999.28;7400625;19;1933;-42
2022/10/10 06:29:12;;;;;;;;;;;;;;;22.14;59.00;102007.56;7402882;19;1696;-41
2022/10/10 06:31:42;;;;;;;;;;;;;;;22.08;57.34;102016.16;7391850;19;1995;-42
2022/10/10 06:34:11;;;;;;;;;;;;;;;22.18;59.67;102011.75;7399781;19;2028;-41
2022/10/10 06:36:39;;;;;;;;;;;;;;;22.17;59.02;102007.34;7401809;19;1917;-41
2022/10/10 06:39:10;;;;;;;;;;;;;;;22.21;60.22;102006.09;7403911;19;1787;-40
2022/10/10 06:41:39;;;;;;;;;;;;;;;22.21;59.83;102010.63;7402614;19;1668;-40
2022/10/10 06:44:07;;;;;;;;;;;;;;;22.26;60.57;102015.66;7399678;19;1937;-40
2022/10/10 06:46:36;;;;;;;;;;;;;;;22.28;60.31;102011.00;7403599;19;1562;-40
2022/10/10 06:49:11;;;;;;;;;;;;;;;22.22;60.58;102009.63;7403978;19;1769;-40
2022/10/10 06:51:43;;;;;;;;;;;;;;;22.10;58.97;102014.19;7404146;19;1869;-40
2022/10/10 06:54:25;;;;;;;;;;;;;;;22.10;60.98;102013.34;7403352;19;1899;-40
2022/10/10 06:56:54;;;;;;;;;;;;;;;22.06;58.71;102007.34;7400870;19;1863;-40
2022/10/10 06:59:22;;;;;;;;;;;;;;;22.04;61.95;102003.94;7403343;19;2024;-40
2022/10/10 07:01:50;;;;;;;;;;;;;;;22.08;59.24;102010.78;7402533;19;1866;-40
2022/10/10 07:04:21;;;;;;;;;;;;;;;22.14;60.05;102009.41;7404679;19;1628;-40
2022/10/10 07:06:49;;;;;;;;;;;;;;;22.15;59.34;102022.78;7403087;19;1749;-40
2022/10/10 07:09:18;;;;;;;;;;;;;;;22.18;59.51;102017.16;7403522;19;1875;-40
2022/10/10 07:11:47;;;;;;;;;;;;;;;22.17;59.68;102011.88;7403986;19;1911;-40
2022/10/10 07:14:15;;;;;;;;;;;;;;;22.18;59.78;102017.16;7404112;19;1938;-41
2022/10/10 07:16:43;;;;;;;;;;;;;;;22.16;60.06;102007.47;7403422;19;1852;-40
2022/10/10 07:19:11;;;;;;;;;;;;;;;22.16;59.74;102019.13;7403753;19;2031;-40
2022/10/10 07:21:42;;;;;;;;;;;;;;;22.18;60.00;102022.53;7402975;19;1920;-40
2022/10/10 07:24:10;;;;;;;;;;;;;;;22.21;59.79;102032.19;7402790;19;1844;-41
2022/10/10 07:26:39;;;;;;;;;;;;;;;22.16;59.88;102012.84;7403712;19;1915;-41
2022/10/10 07:29:07;;;;;;;;;;;;;;;22.21;59.79;102016.88;7401259;19;1739;-41
2022/10/10 07:31:36;;;;;;;;;;;;;;;22.18;59.82;102010.88;7402524;19;1924;-41
2022/10/10 07:34:06;;;;;;;;;;;;;;;22.16;59.92;102002.94;7403850;19;1614;-41
2022/10/10 07:36:35;;;;;;;;;;;;;;;22.16;59.77;101989.47;7401466;19;1872;-41
2022/10/10 07:39:06;;;;;;;;;;;;;;;22.21;59.90;102011.50;7404149;19;1845;-41
2022/10/10 07:41:34;;;;;;;;;;;;;;;22.17;59.90;102004.63;7402681;19;1903;-40
2022/10/10 07:44:02;;;;;;;;;;;;;;;22.19;59.80;101997.28;7403031;19;1920;-40
2022/10/10 07:46:32;;;;;;;;;;;;;;;22.21;59.88;102019.56;7402575;19;1451;-40
2022/10/10 07:49:00;;;;;;;;;;;;;;;22.19;60.10;102007.22;7402813;19;1873;-40
2022/10/10 07:51:31;;;;;;;;;;;;;;;22.19;59.72;102012.59;7402677;19;1969;-40
2022/10/10 07:53:59;;;;;;;;;;;;;;;22.17;59.91;102017.28;7402637;19;1917;-40
2022/10/10 07:56:30;;;;;;;;;;;;;;;22.16;60.19;102013.72;7401195;19;1861;-41
2022/10/10 07:58:58;;;;;;;;;;;;;;;22.19;59.80;102007.22;7402625;19;1866;-40
2022/10/10 08:01:27;;;;;;;;;;;;;;;22.15;60.18;102000.38;7403055;19;1403;-40
2022/10/10 08:03:57;;;;;;;;;;;;;;;22.16;59.74;101997.56;7402102;19;2002;-41
2022/10/10 08:06:25;;;;;;;;;;;;;;;22.18;59.87;102000.97;7401977;19;1832;-41
2022/10/10 08:08:53;;;;;;;;;;;;;;;22.18;59.75;102003.69;7401259;19;1739;-41
2022/10/10 08:11:24;;;;;;;;;;;;;;;22.19;59.96;102005.38;7399589;19;1733;-41
2022/10/10 08:13:55;;;;;;;;;;;;;;;22.20;60.07;102009.78;7402735;19;1940;-41
2022/10/10 08:16:24;;;;;;;;;;;;;;;22.21;59.86;101997.16;7401270;19;1864;-41
2022/10/10 08:18:52;;;;;;;;;;;;;;;22.18;59.91;101994.72;7400706;19;1707;-41
2022/10/10 08:21:20;;;;;;;;;;;;;;;22.16;60.00;101986.78;7401480;19;1921;-41
2022/10/10 08:23:48;;;;;;;;;;;;;;;22.17;59.77;101988.47;7402611;19;1826;-40
2022/10/10 08:26:18;;;;;;;;;;;;;;;22.05;55.50;102005.66;7399974;19;1841;-40
2022/10/10 08:28:47;;;;;;;;;;;;;;;22.08;59.28;102005.38;7400795;19;1917;-40
2022/10/10 08:31:25;;;;;;;;;;;;;;;22.02;52.49;101995.13;7401822;19;1746;-41
2022/10/10 08:34:04;;;;;;;;;;;;;;;22.11;56.07;101991.69;7402158;19;1843;-40
2022/10/10 08:36:32;;;;;;;;;;;;;;;22.06;52.79;101985.81;7400291;19;1859;-40
2022/10/10 08:39:03;;;;;;;;;;;;;;;22.19;54.86;102004.53;7401734;19;1804;-40
2022/10/10 08:41:40;;;;;;;;;;;;;;;22.04;50.08;101988.66;7400557;19;1873;-40
2022/10/10 08:44:18;;;;;;;;;;;;;;;22.07;50.75;101994.75;7397879;19;1921;-40
2022/10/10 08:46:53;;;;;;;;;;;;;;;22.18;52.67;101987.50;7401529;19;1767;-39
2022/10/10 08:49:37;;;;;;;;;;;;;;;22.30;53.13;102000.97;7401077;19;1704;-40
2022/10/10 08:52:19;;;;;;;;;;;;;;;22.26;53.05;101975.25;7401295;19;1753;-40
2022/10/10 08:57:33;;;;;;;;;;;;;;;22.28;53.55;101989.44;7399029;19;2421;-41
2022/10/10 09:00:04;;;;;;;;;;;;;;;22.17;57.31;101987.63;7401313;19;1806;-40
2022/10/10 09:02:39;;;;;;;;;;;;;;;22.10;57.58;101992.66;7399516;19;1927;-41
2022/10/10 09:05:17;;;;;;;;;;;;;;;22.01;54.56;101996.13;7400214;19;1828;-41
2022/10/10 09:08:00;;;;;;;;;;;;;;;22.12;52.24;101998.75;7399147;19;1661;-40
2022/10/10 09:10:43;;;;;;;;;;;;;;;22.08;56.80;101988.38;7398622;19;1752;-40
2022/10/10 09:13:15;;;;;;;;;;;;;;;22.30;53.67;101999.13;7399785;19;2085;-40
2022/10/10 09:15:58;;;;;;;;;;;;;;;22.28;54.51;101997.53;7400698;19;1591;-40
2022/10/10 09:18:45;;;;;;;;;;;;;;;22.29;55.07;101993.88;7399203;19;1932;-41
2022/10/10 09:21:22;;;;;;;;;;;;;;;22.16;55.66;101997.56;7400140;19;1618;-41
2022/10/10 09:23:53;;;;;;;;;;;;;;;22.14;57.01;101999.50;6366925;19;10000883;-41
2022/10/10 09:26:25;;;;;;;;;;;;;;;22.17;55.57;102004.63;7395452;19;1565;-41
2022/10/10 09:31:44;;;;;;;;;;;;;;;22.05;57.01;101986.81;7392542;19;3734;-41
2022/10/10 09:34:18;;;;;;;;;;;;;;;22.05;57.16;102000.28;7391179;19;1626;-42
2022/10/10 09:36:50;;;;;;;;;;;;;;;22.08;55.59;102009.94;7394142;19;1854;-41
2022/10/10 09:39:22;;;;;;;;;;;;;;;22.19;55.16;101982.97;7398684;19;1012;-41
2022/10/10 09:41:55;;;;;;;;;;;;;;;22.22;54.55;101990.78;7397311;19;1591;-41
2022/10/10 09:44:26;;;;;;;;;;;;;;;22.23;54.53;101987.97;7399086;19;1987;-41
2022/10/10 09:46:57;;;;;;;;;;;;;;;22.18;55.02;101979.44;7399168;19;1829;-41
2022/10/10 09:49:39;;;;;;;;;;;;;;;22.17;55.53;101977.69;7397772;19;1708;-41
2022/10/10 09:52:24;;;;;;;;;;;;;;;22.14;57.44;101983.31;7399469;19;1725;-41
2022/10/10 09:54:56;;;;;;;;;;;;;;;22.20;56.06;101981.97;7402453;19;1777;-41
2022/10/10 09:57:33;;;;;;;;;;;;;;;22.14;54.85;101977.09;7405641;19;1859;-41
2022/10/10 10:00:01;;;;;;;;;;;;;;;22.21;55.61;101976.47;7406252;19;2027;-41
2022/10/10 10:02:32;;;;;;;;;;;;;;;22.22;54.60;101970.09;7402426;19;1784;-41
2022/10/10 10:05:19;;;;;;;;;;;;;;;22.18;55.80;101975.84;7405203;19;1805;-42
2022/10/10 10:07:51;;;;;;;;;;;;;;;22.20;55.62;101966.69;7405860;19;1926;-41
2022/10/10 10:10:25;;;;;;;;;;;;;;;22.26;55.73;101964.47;7406841;19;1771;-41
2022/10/10 10:12:58;;;;;;;;;;;;;;;22.29;54.69;101966.94;7405948;19;1665;-41
2022/10/10 10:15:49;;;;;;;;;;;;;;;22.27;54.70;101958.97;7405643;19;1516;-41
2022/10/10 10:18:27;;;;;;;;;;;;;;;22.24;53.91;101938.53;7403805;19;1849;-41
2022/10/10 10:21:12;;;;;;;;;;;;;;;22.37;54.49;101937.50;7406073;19;1598;-41
2022/10/10 10:23:51;;;;;;;;;;;;;;;22.34;54.01;101952.09;7406528;19;1764;-41
2022/10/10 10:26:24;;;;;;;;;;;;;;;22.39;54.79;101938.22;7406860;19;1583;-41
2022/10/10 10:28:53;;;;;;;;;;;;;;;22.39;54.45;101938.22;7405748;19;1607;-41
2022/10/10 10:31:26;;;;;;;;;;;;;;;22.46;54.65;101941.25;7405260;19;2261;-41
2022/10/10 10:34:09;;;;;;;;;;;;;;;22.41;54.19;101928.16;7405310;19;1585;-41
2022/10/10 10:36:52;;;;;;;;;;;;;;;22.39;54.97;101917.50;7405564;19;1933;-42
2022/10/10 10:39:37;;;;;;;;;;;;;;;22.34;56.12;101913.47;7404741;19;1689;-42
2022/10/10 10:42:21;;;;;;;;;;;;;;;22.45;53.62;101926.91;7405069;19;1711;-41
2022/10/10 10:44:55;;;;;;;;;;;;;;;22.52;54.86;101895.78;7404214;19;1882;-41
2022/10/10 10:50:26;;;;;;;;;;;;;;;22.60;56.10;101917.53;7402226;19;2406;-41
2022/10/10 10:53:00;;;;;;;;;;;;;;;22.53;54.16;101894.75;7404717;19;1528;-42
2022/10/10 10:55:38;;;;;;;;;;;;;;;22.52;53.11;101901.16;7403564;19;1634;-42
2022/10/10 10:58:21;;;;;;;;;;;;;;;22.48;54.90;101891.59;7403642;19;1853;-41
2022/10/10 11:00:53;;;;;;;;;;;;;;;22.48;55.24;101883.50;7403765;19;1575;-42
2022/10/10 11:03:27;;;;;;;;;;;;;;;22.47;55.02;101894.44;7400621;19;1766;-42
2022/10/10 11:06:02;;;;;;;;;;;;;;;22.46;54.81;101874.69;7401087;19;1649;-41
2022/10/10 11:08:38;;;;;;;;;;;;;;;22.48;54.76;101875.41;7402488;19;1412;-42
2022/10/10 11:11:12;;;;;;;;;;;;;;;22.48;54.54;101866.50;7404326;19;1702;-42
2022/10/10 11:13:48;;;;;;;;;;;;;;;22.49;54.32;101873.59;7403695;19;1829;-42
2022/10/10 11:16:21;;;;;;;;;;;;;;;22.44;55.73;101860.50;7402806;19;1677;-41
2022/10/10 11:18:56;;;;;;;;;;;;;;;22.43;55.66;101848.88;7401940;19;1958;-42
2022/10/10 11:21:41;;;;;;;;;;;;;;;22.46;55.60;101855.00;7401979;19;1610;-42
2022/10/10 11:24:14;;;;;;;;;;;;;;;22.45;55.02;101854.13;7402547;19;1768;-41
2022/10/10 11:26:46;;;;;;;;;;;;;;;22.42;55.11;101851.69;7404271;19;1826;-41
2022/10/10 11:29:36;;;;;;;;;;;;;;;;;;;;;
2022/10/10 11:32:07;;;;;;;;;;;;;;;22.45;54.86;101851.44;7401426;19;1633;-41
2022/10/10 11:34:40;;;;;;;;;;;;;;;22.46;54.79;101855.00;7403776;19;1832;-41
2022/10/10 11:37:16;;;;;;;;;;;;;;;22.43;54.89;101848.03;7401668;19;1837;-41
2022/10/10 11:39:48;;;;;;;;;;;;;;;22.40;55.38;101835.69;7400411;19;1853;-42
2022/10/10 11:42:22;;;;;;;;;;;;;;;22.38;55.28;101821.47;7402698;19;1528;-41
2022/10/10 11:44:54;;;;;;;;;;;;;;;22.40;53.54;101827.59;7400398;19;1550;-42
2022/10/10 11:47:26;;;;;;;;;;;;;;;22.44;53.20;101822.78;7396694;19;1385;-41
2022/10/10 11:49:56;;;;;;;;;;;;;;;22.58;53.61;101835.94;7399876;19;1623;-41
2022/10/10 11:52:30;;;;;;;;;;;;;;;22.62;52.07;101829.28;7399353;19;1765;-41
2022/10/10 11:55:05;;;;;;;;;;;;;;;22.44;53.05;101822.78;7400483;19;1703;-41
2022/10/10 11:57:36;;;;;;;;;;;;;;;22.32;51.95;101834.59;7400703;19;1866;-41
2022/10/10 12:00:13;;;;;;;;;;;;;;;22.33;52.03;101817.47;7398997;19;1940;-41
2022/10/10 12:02:47;;;;;;;;;;;;;;;22.34;51.85;101835.34;7397674;19;1675;-41
2022/10/10 12:05:41;;;;;;;;;;;;;;;;;;;;;
2022/10/10 12:08:18;;;;;;;;;;;;;;;21.91;45.31;101825.50;7400862;19;1549;-41
2022/10/10 12:10:50;;;;;;;;;;;;;;;21.87;44.67;101807.88;7402124;19;1586;-41
2022/10/10 12:13:27;;;;;;;;;;;;;;;21.77;44.50;101814.03;7402336;19;1666;-42
2022/10/10 12:16:04;;;;;;;;;;;;;;;21.75;43.34;101813.31;7402557;19;1714;-41
2022/10/10 12:18:34;;;;;;;;;;;;;;;21.75;43.19;101810.63;7401286;19;1870;-42
2022/10/10 12:21:09;;;;;;;;;;;;;;;21.81;42.96;101803.88;7401877;19;1598;-41
2022/10/10 12:23:42;;;;;;;;;;;;;;;21.80;42.57;101802.16;7401758;19;1755;-41
2022/10/10 12:26:21;;;;;;;;;;;;;;;21.75;42.86;101802.53;7400565;19;2252;-41
2022/10/10 12:29:06;;;;;;;;;;;;;;;21.81;42.03;101814.63;7401062;19;1582;-42
2022/10/10 12:31:42;;;;;;;;;;;;;;;21.66;41.20;101822.16;7402090;19;1613;-41
2022/10/10 12:34:17;;;;;;;;;;;;;;;21.69;41.49;101827.28;7398259;19;1917;-41
2022/10/10 12:36:55;;;;;;;;;;;;;;;21.72;41.17;101813.56;7398348;19;1633;-41
2022/10/10 12:39:33;;;;;;;;;;;;;;;21.69;40.31;101821.06;7399561;19;1867;-41
2022/10/10 12:42:03;;;;;;;;;;;;;;;21.80;40.84;101819.16;7398774;19;1909;-41
2022/10/10 12:44:53;;;;;;;;;;;;;;;21.81;40.43;101820.03;7400868;19;1708;-42
2022/10/10 12:47:35;;;;;;;;;;;;;;;21.69;40.16;101805.75;7400053;19;1883;-42
2022/10/10 12:50:20;;;;;;;;;;;;;;;21.68;39.96;101812.09;7401063;19;1898;-41
2022/10/10 12:52:51;;;;;;;;;;;;;;;21.63;40.25;101799.03;7400778;19;1412;-41
2022/10/10 12:55:21;;;;;;;;;;;;;;;21.69;40.97;101811.13;7401073;19;1486;-41
2022/10/10 12:57:51;;;;;;;;;;;;;;;21.52;40.53;101807.13;7399985;19;1856;-41
2022/10/10 13:00:21;;;;;;;;;;;;;;;21.54;40.93;101801.63;7400471;19;1800;-41
2022/10/10 13:02:54;;;;;;;;;;;;;;;21.61;40.96;101789.38;7397529;19;1697;-40
2022/10/10 13:05:30;;;;;;;;;;;;;;;21.56;40.74;101805.06;7402299;19;1903;-41
2022/10/10 13:08:01;;;;;;;;;;;;;;;21.54;40.98;101801.63;7400111;19;1805;-41
2022/10/10 13:10:30;;;;;;;;;;;;;;;21.43;40.63;101800.69;7397820;19;1791;-42
2022/10/10 13:13:03;;;;;;;;;;;;;;;21.42;40.55;101792.72;7396298;19;1478;-41
2022/10/10 13:15:32;;;;;;;;;;;;;;;21.39;40.86;101799.19;7399301;19;1749;-41
2022/10/10 13:18:03;;;;;;;;;;;;;;;21.44;40.77;101797.00;7399807;19;1842;-41
2022/10/10 13:20:33;;;;;;;;;;;;;;;21.47;41.12;101785.16;7400836;19;1758;-41
2022/10/10 13:23:04;;;;;;;;;;;;;;;21.42;40.81;101795.41;7400031;19;1673;-40
2022/10/10 13:25:33;;;;;;;;;;;;;;;21.50;41.12;101786.72;7400135;19;1657;-41